Wind Star — C6CA9 — position and weather

sailwx.info

Track history (hours):
 
Tides and Currents Weather Stations Pressure Air Temp Water Temp Dewpoint Dewpoint Depression Visibility Wind Speed Wind Dir Waves Ship Positions

Wind Star

Operator: Holland America Line

Last reported at 2016-May-06 21:33 UTC. Time now 2016-May-06 22:29 UTC.
Position N 37°27' E 023°46'.

Length 134 m; draft 4.2 m.

Type: Passenger vessel. MMSI: 309163000.

Date/timePositionNaut miles runAvg speedWind from/ knotsBaromVisibWave heightAir tempDewpointWater temp
2016-May-06 21:33N 37°27' E 023°46'8 8.3
2016-May-06 20:33N 37°21' E 023°40'8 8.0
2016-May-06 19:32N 37°14' E 023°34'8 7.8
2016-May-06 18:27N 37°08' E 023°27'7 7.5
2016-May-06 17:33N 37°02' E 023°23'  
2016-May-03 18:20N 37°41' E 015°60'911.2
2016-May-03 17:34N 37°43' E 015°49'1411.6
2016-May-03 16:22N 37°46' E 015°32'1011.6
2016-May-03 15:30N 37°49' E 015°20'2 0.2
2016-May-03 05:13N 37°50' E 015°17'3 4.3
2016-May-03 04:32N 37°49' E 015°21'5 1.7
2016-May-03 01:27N 37°44' E 015°20'6 7.1
2016-May-03 00:32N 37°50' E 015°23'7 6.6
2016-May-02 23:33N 37°56' E 015°27'6 6.3
2016-May-02 22:33N 38°02' E 015°30'6 6.1
2016-May-02 21:33N 38°07' E 015°33'7 7.1
2016-May-02 20:33N 38°14' E 015°36'7 6.8
2016-May-02 19:33N 38°21' E 015°37'10 9.8
2016-May-02 18:33N 38°23' E 015°24'10 9.7
2016-May-02 17:33N 38°25' E 015°13'10 9.6
2016-May-02 16:32N 38°27' E 015°00'2 0.3
2016-May-02 08:21N 38°28' E 014°58'4 4.4
2016-May-02 07:29N 38°32' E 014°59'  
2016-Apr-29 23:33N 42°15' E 010°51'1010.1
2016-Apr-29 22:33N 42°22' E 010°42'1211.9
2016-Apr-29 21:33N 42°34' E 010°38'1211.8
2016-Apr-29 20:32N 42°45' E 010°33'1010.3
2016-Apr-29 19:33N 42°54' E 010°25'6 6.1
2016-Apr-29 18:33N 42°49' E 010°21'6 6.1
2016-Apr-29 17:33N 42°54' E 010°25'3 2.7
2016-Apr-29 16:27N 42°54' E 010°30'7 7.6
2016-Apr-29 15:33N 42°51' E 010°21'2 2.2
2016-Apr-29 14:28N 42°49' E 010°19'1 0.1
2016-Apr-29 05:31N 42°49' E 010°20'3 3.4
2016-Apr-29 04:32N 42°51' E 010°18'5 5.2
2016-Apr-29 03:30N 42°51' E 010°11'6 6.3
2016-Apr-29 02:33N 42°50' E 010°03'  
Track history (hours):
 
Tides and Currents Weather Stations Pressure Air Temp Water Temp Dewpoint Dewpoint Depression Visibility Wind Speed Wind Dir Waves Ship Positions

Wind Star

Operator: Holland America Line

Last reported at 2016-May-06 21:33 UTC. Time now 2016-May-06 22:29 UTC.
Position N 37°27' E 023°46'.

Length 134 m; draft 4.2 m.

Type: Passenger vessel. MMSI: 309163000.

Date/timePositionNaut miles runAvg speedWind from/ knotsBaromVisibWave heightAir tempDewpointWater temp
2016-May-06 21:33N 37°27' E 023°46'8 8.3
2016-May-06 20:33N 37°21' E 023°40'8 8.0
2016-May-06 19:32N 37°14' E 023°34'8 7.8
2016-May-06 18:27N 37°08' E 023°27'7 7.5
2016-May-06 17:33N 37°02' E 023°23'  
2016-May-03 18:20N 37°41' E 015°60'911.2
2016-May-03 17:34N 37°43' E 015°49'1411.6
2016-May-03 16:22N 37°46' E 015°32'1011.6
2016-May-03 15:30N 37°49' E 015°20'2 0.2
2016-May-03 05:13N 37°50' E 015°17'3 4.3
2016-May-03 04:32N 37°49' E 015°21'5 1.7
2016-May-03 01:27N 37°44' E 015°20'6 7.1
2016-May-03 00:32N 37°50' E 015°23'7 6.6
2016-May-02 23:33N 37°56' E 015°27'6 6.3
2016-May-02 22:33N 38°02' E 015°30'6 6.1
2016-May-02 21:33N 38°07' E 015°33'7 7.1
2016-May-02 20:33N 38°14' E 015°36'7 6.8
2016-May-02 19:33N 38°21' E 015°37'10 9.8
2016-May-02 18:33N 38°23' E 015°24'10 9.7
2016-May-02 17:33N 38°25' E 015°13'10 9.6
2016-May-02 16:32N 38°27' E 015°00'2 0.3
2016-May-02 08:21N 38°28' E 014°58'4 4.4
2016-May-02 07:29N 38°32' E 014°59'  
2016-Apr-29 23:33N 42°15' E 010°51'1010.1
2016-Apr-29 22:33N 42°22' E 010°42'1211.9
2016-Apr-29 21:33N 42°34' E 010°38'1211.8
2016-Apr-29 20:32N 42°45' E 010°33'1010.3
2016-Apr-29 19:33N 42°54' E 010°25'6 6.1
2016-Apr-29 18:33N 42°49' E 010°21'6 6.1
2016-Apr-29 17:33N 42°54' E 010°25'3 2.7
2016-Apr-29 16:27N 42°54' E 010°30'7 7.6
2016-Apr-29 15:33N 42°51' E 010°21'2 2.2
2016-Apr-29 14:28N 42°49' E 010°19'1 0.1
2016-Apr-29 05:31N 42°49' E 010°20'3 3.4
2016-Apr-29 04:32N 42°51' E 010°18'5 5.2
2016-Apr-29 03:30N 42°51' E 010°11'6 6.3
2016-Apr-29 02:33N 42°50' E 010°03'  

Dump ship's entire track history